Kingston, Washington
Current Conditions -  °F | °C
As of 10:53 PM on Friday 24 Oct 2014 (Local Time) from KPAE Reporting Station
Light Rain Light Rain  
Wind Chill: 10°   Ceiling: 6500
Heat Index: 10°   Visibility: 8mi
Dew Point:   Wind: 8mph
Humidity: 89%   Direction: 90°E
Pressure: 29.81"   Gusts: NA
Location:  47.8°N, 122.5°W
Report Text: KPAE 250553Z AUTO 09007KT 8SM -RA FEW050 OVC065 10/08 A2981 RMK AO2 SLP096 P0004 60011 T01000083 10117 20100 58017
Loading
Personal Weather Stations






























Interactive Weather Map
Tropical Storm Tracking
New forecast layout! Learn more

10-Day Weather Forecast

Advertisements
Track Severe Weather on mobile